KMYF/MYF METAR and TAF weather

Enter ICAO airport designator
Station Type Date Time Source
KMYF METAR 2020/07/04 01:53 UTC NOAA

KMYF 040153Z 28007KT 10SM CLR 23/16 A2995 RMK AO2 SLP139 T02280161


Station Type Date Time Source
KMYF Decoded METAR 2020/07/04 01:53 UTC NOAA

SAN DIEGO MONTGOMERY FIELD, CA, United States (KMYF) 32-49N 117-08W 136M
Jul 03, 2020 - 09:53 PM EDT / 2020.07.04 0153 UTC
Wind: from the W (280 degrees) at 8 MPH (7 KT):0
Visibility: 10 mile(s):0
Sky conditions: clear
Temperature: 73.0 F (22.8 C)
Dew Point: 61.0 F (16.1 C)
Relative Humidity: 65%
Pressure (altimeter): 29.95 in. Hg (1014 hPa)
ob: KMYF 040153Z 28007KT 10SM CLR 23/16 A2995 RMK AO2 SLP139 T02280161
cycle: 2

Station Type Date Time Source
KMYF TAF UTC NOAA

Error!

Example: see airport list